createdAt,value
2023-08-03T00:00:10.533Z,59.67
2023-08-03T00:03:13.156Z,59.41
2023-08-03T00:06:15.688Z,59.69
2023-08-03T00:09:17.764Z,60.14
2023-08-03T00:12:20.113Z,60.57
2023-08-03T00:15:22.179Z,60.65
2023-08-03T00:18:24.289Z,60.56
2023-08-03T00:21:26.479Z,60.88
2023-08-03T00:24:28.637Z,61.64
2023-08-03T00:27:31.360Z,61.21
2023-08-03T00:30:33.717Z,61.41
2023-08-03T00:33:35.826Z,61.22
2023-08-03T00:36:37.874Z,61.55
2023-08-03T00:39:41.250Z,61.84
2023-08-03T00:42:43.393Z,62.35
2023-08-03T00:45:45.562Z,62.04
2023-08-03T00:48:47.834Z,62.48
2023-08-03T00:51:49.936Z,63.48
2023-08-03T00:54:52.126Z,63.67
2023-08-03T00:57:54.166Z,64.20
2023-08-03T01:00:56.356Z,64.56
2023-08-03T01:03:58.552Z,65.68
2023-08-03T01:07:00.588Z,66.90
2023-08-03T01:10:03.701Z,66.41
2023-08-03T01:13:06.017Z,66.48
2023-08-03T01:16:12.598Z,67.42
2023-08-03T01:19:15.412Z,67.13
2023-08-03T01:22:19.028Z,67.22
2023-08-03T01:25:21.256Z,67.71
2023-08-03T01:28:23.362Z,67.14
2023-08-03T01:31:25.665Z,67.39
2023-08-03T01:34:29.258Z,68.71
2023-08-03T01:37:31.407Z,68.69
2023-08-03T01:40:33.539Z,69.32
2023-08-03T01:43:35.594Z,69.86
2023-08-03T01:46:37.633Z,69.92
2023-08-03T01:49:39.758Z,70.40
2023-08-03T01:52:41.773Z,70.67
2023-08-03T01:55:46.780Z,71.50
2023-08-03T01:58:48.832Z,72.02
2023-08-03T02:01:51.099Z,71.58
2023-08-03T02:04:53.109Z,71.73
2023-08-03T02:07:55.826Z,72.69
2023-08-03T02:10:57.889Z,72.76
2023-08-03T02:14:00.426Z,72.93
2023-08-03T02:17:02.815Z,72.27
2023-08-03T02:20:05.859Z,73.40
2023-08-03T02:23:07.915Z,73.12
2023-08-03T02:26:10.042Z,73.46
2023-08-03T02:29:12.234Z,73.84
2023-08-03T02:32:14.286Z,73.77
2023-08-03T02:35:16.489Z,73.60
2023-08-03T02:38:18.691Z,74.12
2023-08-03T02:41:20.716Z,74.17
2023-08-03T02:44:22.849Z,73.67
2023-08-03T02:47:24.848Z,74.59
2023-08-03T02:50:27.194Z,75.26
2023-08-03T02:53:29.187Z,75.29
2023-08-03T02:56:31.237Z,75.07
2023-08-03T02:59:33.185Z,75.80
2023-08-03T03:02:35.334Z,76.38
2023-08-03T03:05:37.381Z,76.80
2023-08-03T03:08:39.270Z,76.78
2023-08-03T03:11:41.262Z,76.82
2023-08-03T03:14:43.278Z,76.95
2023-08-03T03:17:45.322Z,77.02
2023-08-03T03:20:47.286Z,76.32
2023-08-03T03:23:49.326Z,77.20
2023-08-03T03:26:51.647Z,77.73
2023-08-03T03:29:53.623Z,77.79
2023-08-03T03:32:55.598Z,78.35
2023-08-03T03:35:57.608Z,78.12
2023-08-03T03:38:59.578Z,78.46
2023-08-03T03:42:01.543Z,78.10
2023-08-03T03:45:03.601Z,78.51
2023-08-03T03:48:05.732Z,78.55
2023-08-03T03:51:07.671Z,79.03
2023-08-03T03:54:09.607Z,78.40
2023-08-03T03:57:11.725Z,78.39
2023-08-03T04:00:13.682Z,78.71
2023-08-03T04:03:15.656Z,78.49
2023-08-03T04:06:17.736Z,78.67
2023-08-03T04:09:19.697Z,78.24
2023-08-03T04:12:21.611Z,78.00
2023-08-03T04:15:23.804Z,76.33
2023-08-03T04:18:25.751Z,76.02
2023-08-03T04:21:27.668Z,74.55
2023-08-03T04:24:31.819Z,73.58
2023-08-03T04:27:33.817Z,72.63
2023-08-03T04:30:35.811Z,71.22
2023-08-03T04:33:37.683Z,68.13
2023-08-03T04:36:40.478Z,66.50
2023-08-03T04:39:42.385Z,64.21
2023-08-03T04:42:44.365Z,63.31
2023-08-03T04:45:46.304Z,62.54
2023-08-03T04:48:48.276Z,62.97
2023-08-03T04:51:53.023Z,62.69
2023-08-03T04:54:54.933Z,61.54
2023-08-03T04:57:56.951Z,60.75
2023-08-03T05:00:59.005Z,60.13
2023-08-03T05:04:01.923Z,59.73
2023-08-03T05:07:04.423Z,58.79
2023-08-03T05:10:07.176Z,57.42
2023-08-03T05:13:09.193Z,57.05
2023-08-03T05:16:11.146Z,57.85
2023-08-03T05:19:13.173Z,54.82
2023-08-03T05:22:15.108Z,56.27
2023-08-03T05:25:17.094Z,56.02
2023-08-03T05:28:19.056Z,56.17
2023-08-03T05:31:21.073Z,56.69
2023-08-03T05:34:23.154Z,59.86
2023-08-03T05:37:25.141Z,62.15
2023-08-03T05:40:27.075Z,62.09
2023-08-03T05:43:29.228Z,61.38
2023-08-03T05:46:33.552Z,58.36
2023-08-03T05:49:40.726Z,59.24
2023-08-03T05:52:43.686Z,58.80
2023-08-03T05:56:01.075Z,59.38
2023-08-03T05:59:13.532Z,60.11
2023-08-03T06:02:33.047Z,57.27
2023-08-03T06:05:51.089Z,53.38
2023-08-03T06:08:55.028Z,53.07
2023-08-03T06:11:57.054Z,52.09
2023-08-03T06:14:59.009Z,52.37
2023-08-03T06:18:04.512Z,50.21
2023-08-03T06:21:06.668Z,49.70
2023-08-03T06:24:09.164Z,50.43
2023-08-03T06:27:12.854Z,49.39
2023-08-03T06:30:15.538Z,47.89
2023-08-03T06:33:20.066Z,48.01
2023-08-03T06:36:29.099Z,46.61
2023-08-03T06:39:34.312Z,44.35
2023-08-03T06:42:37.257Z,46.38
2023-08-03T06:45:43.887Z,49.08
2023-08-03T06:48:46.344Z,46.58
2023-08-03T06:51:48.421Z,47.48
2023-08-03T06:54:50.830Z,47.31
2023-08-03T06:57:54.162Z,48.78
2023-08-03T07:00:56.293Z,46.76
2023-08-03T07:03:58.360Z,47.05
2023-08-03T07:07:03.248Z,50.01
2023-08-03T07:10:07.145Z,48.93
2023-08-03T07:13:11.368Z,52.34
2023-08-03T07:16:25.021Z,50.40
2023-08-03T07:53:44.622Z,57.21
2023-08-03T08:06:23.373Z,52.54
2023-08-03T08:20:19.993Z,48.13
2023-08-03T08:45:50.829Z,47.14
2023-08-03T09:02:14.266Z,45.06
2023-08-03T09:29:58.904Z,51.89
2023-08-03T09:33:01.469Z,50.79
2023-08-03T09:45:37.757Z,49.71
2023-08-03T09:49:14.275Z,49.27
2023-08-03T09:52:15.420Z,50.75
2023-08-03T09:55:45.345Z,52.35
2023-08-03T09:59:05.092Z,53.29
2023-08-03T10:02:13.115Z,51.43
2023-08-03T10:05:21.469Z,54.08
2023-08-03T10:08:31.648Z,53.61
2023-08-03T10:11:54.979Z,50.95
2023-08-03T10:14:58.727Z,51.80
2023-08-03T10:18:06.143Z,52.34
2023-08-03T10:21:13.659Z,54.66
2023-08-03T10:24:23.559Z,53.53
2023-08-03T10:27:26.226Z,53.81
2023-08-03T10:31:04.974Z,53.75
2023-08-03T10:34:07.472Z,54.35
2023-08-03T10:37:16.045Z,53.85
2023-08-03T10:40:24.634Z,56.46
2023-08-03T10:43:26.670Z,54.55
2023-08-03T10:46:35.199Z,52.38
2023-08-03T10:49:46.402Z,54.18
2023-08-03T10:52:51.516Z,54.78
2023-08-03T10:56:16.339Z,53.86
2023-08-03T10:59:18.401Z,52.29
2023-08-03T11:02:23.632Z,54.31
2023-08-03T11:05:25.904Z,53.87
2023-08-03T11:08:27.971Z,54.19
2023-08-03T11:11:34.076Z,49.09
2023-08-03T11:14:38.189Z,50.50
2023-08-03T11:17:40.285Z,50.50
2023-08-03T11:20:42.918Z,50.06
2023-08-03T11:23:47.970Z,50.22
2023-08-03T11:26:51.412Z,51.30
2023-08-03T11:29:53.641Z,51.64
2023-08-03T11:33:02.360Z,48.38
2023-08-03T11:36:04.986Z,46.97
2023-08-03T11:39:07.132Z,51.14
2023-08-03T11:42:09.555Z,47.03
2023-08-03T11:45:14.012Z,46.02
2023-08-03T11:48:15.919Z,45.58
2023-08-03T11:51:20.360Z,47.11
2023-08-03T11:54:25.700Z,47.86
2023-08-03T11:57:53.021Z,49.65
2023-08-03T12:01:03.316Z,50.15
2023-08-03T12:04:14.456Z,48.43
2023-08-03T12:10:21.670Z,45.86
2023-08-03T12:13:24.271Z,45.37
2023-08-03T12:16:39.109Z,46.12
2023-08-03T12:19:47.022Z,46.75
2023-08-03T12:22:49.578Z,45.12
2023-08-03T12:26:22.595Z,45.92
2023-08-03T12:29:41.227Z,46.85
2023-08-03T12:32:47.047Z,51.02
2023-08-03T12:35:59.638Z,50.15
2023-08-03T12:39:07.169Z,51.46
2023-08-03T12:42:13.838Z,51.17
2023-08-03T12:45:19.237Z,52.88
2023-08-03T12:48:28.065Z,48.50
2023-08-03T12:51:33.233Z,50.78
2023-08-03T12:54:35.536Z,52.01
2023-08-03T12:57:41.625Z,52.39
2023-08-03T13:00:48.622Z,50.94
2023-08-03T13:03:53.435Z,50.57
2023-08-03T13:06:58.318Z,51.72
2023-08-03T13:10:02.863Z,50.99
2023-08-03T13:13:28.287Z,51.28
2023-08-03T13:16:36.385Z,51.83
2023-08-03T13:19:42.037Z,51.50
2023-08-03T13:22:47.190Z,52.47
2023-08-03T13:25:49.373Z,52.46
2023-08-03T13:28:54.069Z,53.51
2023-08-03T13:31:56.286Z,52.47
2023-08-03T13:35:01.419Z,54.40
2023-08-03T13:38:03.786Z,54.01
2023-08-03T13:41:06.551Z,54.36
2023-08-03T13:44:09.626Z,56.03
2023-08-03T13:47:15.167Z,55.29
2023-08-03T13:50:17.707Z,54.26
2023-08-03T13:53:24.692Z,55.69
2023-08-03T13:56:32.904Z,56.18
2023-08-03T13:59:35.472Z,54.28
2023-08-03T14:02:44.794Z,52.80
2023-08-03T14:09:12.931Z,54.05
2023-08-03T14:12:16.716Z,55.41
2023-08-03T14:21:52.984Z,53.90
2023-08-03T14:31:16.714Z,53.70
2023-08-03T14:34:22.032Z,53.72
2023-08-03T14:37:26.249Z,51.39
2023-08-03T14:40:32.026Z,53.41
2023-08-03T14:43:34.256Z,53.75
2023-08-03T14:46:37.180Z,50.70
2023-08-03T14:49:43.376Z,52.25
2023-08-03T14:53:09.631Z,54.18
2023-08-03T14:59:19.882Z,53.62
2023-08-03T15:02:24.971Z,54.09
2023-08-03T15:05:30.394Z,53.33
2023-08-03T15:08:35.711Z,52.83
2023-08-03T15:11:39.390Z,52.40
2023-08-03T15:14:48.503Z,53.46
2023-08-03T15:17:58.676Z,53.66
2023-08-03T15:21:01.612Z,54.95
2023-08-03T15:24:29.696Z,55.29
2023-08-03T15:35:26.891Z,55.19
2023-08-03T15:38:33.634Z,55.42
2023-08-03T15:41:41.261Z,55.55
2023-08-03T15:44:45.462Z,54.91
2023-08-03T15:51:09.906Z,55.77
2023-08-03T15:54:20.798Z,54.80
2023-08-03T15:57:30.142Z,55.59
2023-08-03T16:00:36.991Z,53.93
2023-08-03T16:03:43.049Z,55.07
2023-08-03T16:06:49.492Z,54.88
2023-08-03T16:09:51.809Z,53.50
2023-08-03T16:12:57.379Z,53.33
2023-08-03T16:16:03.928Z,53.95
2023-08-03T16:19:09.493Z,53.99
2023-08-03T16:22:11.785Z,53.47
2023-08-03T16:25:19.061Z,53.56
2023-08-03T16:28:22.351Z,53.50
2023-08-03T16:31:38.258Z,53.20
2023-08-03T16:37:53.316Z,52.61
2023-08-03T16:41:04.275Z,52.93
2023-08-03T16:44:08.628Z,53.32
2023-08-03T16:47:10.904Z,53.47
2023-08-03T16:50:15.760Z,53.45
2023-08-03T16:53:25.331Z,52.71
2023-08-03T16:56:27.510Z,53.38
2023-08-03T16:59:31.942Z,53.11
2023-08-03T17:02:39.935Z,52.88
2023-08-03T17:05:44.251Z,54.46
2023-08-03T17:08:49.084Z,55.56
2023-08-03T17:11:55.744Z,61.90
2023-08-03T17:14:57.994Z,56.20
2023-08-03T17:18:03.270Z,56.26
2023-08-03T17:21:08.856Z,60.15
2023-08-03T17:24:11.044Z,60.86
2023-08-03T17:27:13.135Z,60.61
2023-08-03T17:30:15.313Z,60.91
2023-08-03T17:33:22.363Z,62.36
2023-08-03T17:36:25.409Z,61.11
2023-08-03T17:39:27.704Z,61.08
2023-08-03T17:42:33.672Z,65.54
2023-08-03T17:45:39.594Z,61.64
2023-08-03T17:48:42.008Z,60.56
2023-08-03T17:51:44.913Z,63.34
2023-08-03T17:54:47.330Z,63.40
2023-08-03T17:57:52.301Z,64.94
2023-08-03T18:00:54.471Z,62.72
2023-08-03T18:03:56.638Z,61.06
2023-08-03T18:06:59.634Z,67.58
2023-08-03T18:10:05.740Z,65.36
2023-08-03T18:13:08.056Z,64.67
2023-08-03T18:16:14.956Z,62.23
2023-08-03T18:19:18.221Z,60.66
2023-08-03T18:22:20.498Z,60.68
2023-08-03T18:25:22.454Z,59.44
2023-08-03T18:28:24.893Z,57.48
2023-08-03T18:31:26.943Z,57.33
2023-08-03T18:34:29.672Z,58.73
2023-08-03T18:37:31.692Z,58.00
2023-08-03T18:40:33.962Z,61.56
2023-08-03T18:43:37.030Z,60.10
2023-08-03T18:46:39.442Z,57.47
2023-08-03T18:49:44.297Z,60.84
2023-08-03T18:52:46.712Z,57.93
2023-08-03T18:55:48.907Z,57.28
2023-08-03T18:58:55.634Z,57.54
2023-08-03T19:01:57.769Z,54.60
2023-08-03T19:04:59.932Z,55.11
2023-08-03T19:08:06.914Z,54.98
2023-08-03T19:11:11.741Z,56.39
2023-08-03T19:14:13.719Z,54.60
2023-08-03T19:17:15.929Z,58.43
2023-08-03T19:20:17.921Z,59.35
2023-08-03T19:23:19.867Z,59.29
2023-08-03T19:26:22.216Z,58.37
2023-08-03T19:29:24.302Z,59.06
2023-08-03T19:32:26.434Z,59.60
2023-08-03T19:35:29.464Z,59.36
2023-08-03T19:38:32.652Z,59.88
2023-08-03T19:41:34.518Z,59.33
2023-08-03T19:44:37.562Z,60.99
2023-08-03T19:47:39.482Z,62.33
2023-08-03T19:53:46.384Z,64.01
2023-08-03T19:56:49.003Z,67.56
2023-08-03T20:09:10.995Z,70.39
2023-08-03T20:12:13.179Z,71.33
2023-08-03T20:15:15.227Z,73.86
2023-08-03T20:21:22.060Z,71.32
2023-08-03T20:24:24.224Z,73.97
2023-08-03T20:27:28.381Z,75.53
2023-08-03T20:30:31.435Z,75.33
2023-08-03T20:33:33.472Z,74.36
2023-08-03T20:36:36.238Z,73.39
2023-08-03T20:39:38.985Z,73.76
2023-08-03T20:42:42.586Z,75.58
2023-08-03T20:48:52.545Z,75.51
2023-08-03T20:51:54.845Z,75.82
2023-08-03T20:54:57.905Z,75.76
2023-08-03T20:58:00.809Z,74.71
2023-08-03T21:01:02.902Z,74.73
2023-08-03T21:04:05.475Z,73.62
2023-08-03T21:07:07.728Z,77.21
2023-08-03T21:13:16.287Z,76.07
2023-08-03T21:16:18.430Z,76.61
2023-08-03T21:19:23.380Z,75.92
2023-08-03T21:22:25.310Z,77.82
2023-08-03T21:25:27.252Z,77.05
2023-08-03T21:28:29.235Z,76.54
2023-08-03T21:31:31.218Z,78.09
2023-08-03T21:34:34.178Z,73.66
2023-08-03T21:37:37.789Z,72.57
2023-08-03T21:40:39.815Z,72.58
2023-08-03T21:43:41.721Z,75.81
2023-08-03T21:46:43.644Z,77.25
2023-08-03T21:49:45.630Z,78.32
2023-08-03T21:52:47.498Z,77.97
2023-08-03T21:55:49.473Z,78.12
2023-08-03T21:58:52.027Z,78.33
2023-08-03T22:01:55.613Z,78.77
2023-08-03T22:04:57.598Z,79.01
2023-08-03T22:07:59.533Z,78.37
2023-08-03T22:11:01.493Z,78.39
2023-08-03T22:14:03.396Z,79.02
2023-08-03T22:17:05.539Z,79.64
2023-08-03T22:20:07.886Z,80.97
2023-08-03T22:23:09.757Z,82.23
2023-08-03T22:26:17.121Z,82.11
2023-08-03T22:29:19.065Z,83.10
2023-08-03T22:32:20.995Z,82.71
2023-08-03T22:35:22.905Z,84.24
2023-08-03T22:38:24.754Z,82.29
2023-08-03T22:41:26.688Z,83.92
2023-08-03T22:44:28.609Z,84.74
2023-08-03T22:47:36.066Z,84.67
2023-08-03T22:50:47.046Z,85.96
2023-08-03T22:53:49.295Z,85.39
2023-08-03T22:56:51.226Z,85.76
2023-08-03T22:59:54.222Z,85.22
2023-08-03T23:02:56.413Z,84.66
2023-08-03T23:05:58.367Z,85.27
2023-08-03T23:09:00.276Z,84.07
2023-08-03T23:12:02.129Z,84.74
2023-08-03T23:15:04.381Z,86.00
2023-08-03T23:18:06.533Z,86.34
2023-08-03T23:21:08.509Z,85.76
2023-08-03T23:24:10.332Z,86.44
2023-08-03T23:27:12.141Z,86.49
2023-08-03T23:30:14.010Z,85.14
2023-08-03T23:33:15.916Z,87.71
2023-08-03T23:36:17.924Z,86.14
2023-08-03T23:39:20.002Z,85.59
2023-08-03T23:42:21.841Z,86.86
2023-08-03T23:45:23.678Z,87.48
2023-08-03T23:48:25.479Z,86.79
2023-08-03T23:51:27.368Z,87.10
2023-08-03T23:54:29.189Z,88.47
2023-08-03T23:57:31.038Z,88.51
